Time;durP1;ratioP1;P1;durP2;ratioP2;P2;SDS_P1;SDS_P2;PMS_P1;PMS_P2;Temp;Humidity;BMP_temperature;BMP_pressure;BME280_temperature;BME280_humidity;BME280_pressure;Samples;Min_cycle;Max_cycle;Signal;HPM_P1;HPM_P2
2022/03/11 00:01:29;;;;;;;8.20;5.70;;;;;;;;;;5011475;28;20219;-65
2022/03/11 00:03:57;;;;;;;9.37;5.63;;;;;;;;;;5024454;28;20223;-66
2022/03/11 00:06:25;;;;;;;9.77;6.00;;;;;;;;;;5026243;28;20227;-61
2022/03/11 00:08:52;;;;;;;9.70;6.13;;;;;;;;;;5020541;28;20285;-64
2022/03/11 00:11:19;;;;;;;7.77;5.87;;;;;;;;;;5038065;28;20566;-64
2022/03/11 00:13:47;;;;;;;8.07;6.10;;;;;;;;;;5019241;28;20264;-65
2022/03/11 00:16:15;;;;;;;8.73;6.10;;;;;;;;;;5020379;28;20684;-63
2022/03/11 00:18:43;;;;;;;10.57;6.10;;;;;;;;;;5027943;28;20226;-64
2022/03/11 00:21:12;;;;;;;8.63;6.00;;;;;;;;;;5034973;28;20627;-65
2022/03/11 00:23:40;;;;;;;9.17;6.67;;;;;;;;;;5024338;28;20578;-63
2022/03/11 00:26:07;;;;;;;9.27;6.57;;;;;;;;;;5031574;28;20268;-62
2022/03/11 00:28:34;;;;;;;8.73;6.00;;;;;;;;;;5027523;28;20257;-64
2022/03/11 00:31:03;;;;;;;10.07;6.53;;;;;;;;;;5017629;28;20247;-64
2022/03/11 00:33:31;;;;;;;10.20;7.07;;;;;;;;;;5011786;28;20650;-63
2022/03/11 00:35:59;;;;;;;10.57;7.30;;;;;;;;;;5015103;28;20628;-63
2022/03/11 00:38:26;;;;;;;12.87;6.77;;;;;;;;;;5032415;28;20227;-64
2022/03/11 00:40:56;;;;;;;8.90;6.63;;;;;;;;;;5012940;28;20260;-63
2022/03/11 00:43:23;;;;;;;9.63;6.77;;;;;;;;;;5013500;28;20195;-64
2022/03/11 00:45:51;;;;;;;12.33;7.77;;;;;;;;;;5014115;28;20199;-65
2022/03/11 00:48:20;;;;;;;13.77;7.50;;;;;;;;;;5018417;28;20223;-63
2022/03/11 00:50:48;;;;;;;12.80;7.90;;;;;;;;;;5023397;28;20217;-64
2022/03/11 00:53:15;;;;;;;10.77;7.80;;;;;;;;;;5022511;28;20210;-64
2022/03/11 00:55:43;;;;;;;12.87;7.70;;;;;;;;;;5004171;28;20344;-65
2022/03/11 00:58:10;;;;;;;12.67;8.13;;;;;;;;;;5024769;28;20320;-65
2022/03/11 01:00:37;;;;;;;10.03;7.20;;;;;;;;;;5013638;28;20209;-64
2022/03/11 01:03:05;;;;;;;14.67;8.63;;;;;;;;;;5012425;28;20297;-64
2022/03/11 01:05:32;;;;;;;11.97;8.63;;;;;;;;;;5007246;28;20665;-65
2022/03/11 01:08:00;;;;;;;12.37;8.60;;;;;;;;;;5004483;28;20245;-64
2022/03/11 01:10:27;;;;;;;11.03;8.10;;;;;;;;;;5013019;28;20206;-63
2022/03/11 01:12:55;;;;;;;13.90;8.83;;;;;;;;;;5005074;28;20648;-64
2022/03/11 01:15:24;;;;;;;11.90;8.30;;;;;;;;;;5006294;28;20852;-64
2022/03/11 01:17:51;;;;;;;13.67;9.30;;;;;;;;;;5011625;28;20230;-64
2022/03/11 01:20:18;;;;;;;14.43;8.70;;;;;;;;;;5011033;28;20222;-63
2022/03/11 01:22:46;;;;;;;16.93;9.03;;;;;;;;;;5012764;28;20214;-64
2022/03/11 01:25:13;;;;;;;15.27;9.07;;;;;;;;;;5035318;28;20210;-64
2022/03/11 01:27:40;;;;;;;14.00;9.10;;;;;;;;;;5034108;28;20652;-63
2022/03/11 01:30:13;;;;;;;13.93;9.47;;;;;;;;;;5019874;28;20213;-63
2022/03/11 01:32:44;;;;;;;17.17;9.67;;;;;;;;;;5018087;28;20202;-64
2022/03/11 01:35:12;;;;;;;13.70;9.50;;;;;;;;;;5007798;28;20206;-65
2022/03/11 01:37:39;;;;;;;13.70;9.73;;;;;;;;;;5011213;28;20237;-64
2022/03/11 01:40:07;;;;;;;15.63;10.10;;;;;;;;;;5016943;28;20207;-65
2022/03/11 01:42:36;;;;;;;15.93;10.40;;;;;;;;;;5026444;28;20203;-64
2022/03/11 01:45:05;;;;;;;19.60;10.80;;;;;;;;;;5011805;28;20211;-63
2022/03/11 01:47:33;;;;;;;16.53;10.73;;;;;;;;;;5025797;28;20316;-65
2022/03/11 01:50:00;;;;;;;14.73;10.73;;;;;;;;;;5024048;28;20199;-64
2022/03/11 01:52:27;;;;;;;16.97;11.27;;;;;;;;;;5016162;28;20202;-65
2022/03/11 01:54:55;;;;;;;16.10;10.73;;;;;;;;;;5022698;28;20210;-63
2022/03/11 01:57:22;;;;;;;16.57;11.43;;;;;;;;;;5011092;28;20229;-63
2022/03/11 01:59:50;;;;;;;19.57;11.80;;;;;;;;;;5010822;28;20233;-64
2022/03/11 02:02:17;;;;;;;16.47;11.03;;;;;;;;;;5007630;28;21054;-64
2022/03/11 02:04:45;;;;;;;19.80;11.80;;;;;;;;;;5009718;28;20868;-65
2022/03/11 02:07:12;;;;;;;17.60;11.63;;;;;;;;;;5007558;28;20238;-65
2022/03/11 02:09:40;;;;;;;16.27;12.40;;;;;;;;;;5005196;28;20321;-64
2022/03/11 02:12:07;;;;;;;17.30;12.33;;;;;;;;;;5013866;28;20198;-63
2022/03/11 02:14:35;;;;;;;21.80;13.43;;;;;;;;;;5024711;28;20194;-64
2022/03/11 02:17:02;;;;;;;21.23;12.70;;;;;;;;;;5026001;28;20246;-64
2022/03/11 02:19:30;;;;;;;18.57;12.97;;;;;;;;;;5017412;28;20209;-63
2022/03/11 02:21:59;;;;;;;20.47;13.03;;;;;;;;;;5017505;28;22432;-64
2022/03/11 02:24:27;;;;;;;18.77;12.33;;;;;;;;;;5003913;28;20368;-62
2022/03/11 02:26:55;;;;;;;20.57;12.93;;;;;;;;;;5020183;28;20234;-64
2022/03/11 02:29:22;;;;;;;18.47;12.27;;;;;;;;;;5034528;28;20210;-64
2022/03/11 02:31:50;;;;;;;19.70;13.00;;;;;;;;;;5023281;28;20198;-63
2022/03/11 02:34:17;;;;;;;19.53;13.30;;;;;;;;;;5018022;28;20214;-64
2022/03/11 02:36:47;;;;;;;23.50;14.00;;;;;;;;;;5014068;28;20263;-63
2022/03/11 02:39:15;;;;;;;21.70;14.00;;;;;;;;;;5016932;28;20198;-63
2022/03/11 02:41:45;;;;;;;21.17;13.13;;;;;;;;;;5016478;28;20208;-64
2022/03/11 02:44:12;;;;;;;24.33;15.03;;;;;;;;;;5017922;28;20206;-64
2022/03/11 02:46:40;;;;;;;25.37;15.07;;;;;;;;;;5012820;28;20218;-62
2022/03/11 02:49:07;;;;;;;28.37;15.40;;;;;;;;;;5012491;28;20214;-62
2022/03/11 02:51:34;;;;;;;22.23;14.70;;;;;;;;;;5010890;28;20210;-65
2022/03/11 02:54:03;;;;;;;25.53;15.07;;;;;;;;;;5027633;28;20207;-62
2022/03/11 02:56:30;;;;;;;21.97;14.30;;;;;;;;;;5029238;28;20205;-64
2022/03/11 02:58:58;;;;;;;23.07;14.87;;;;;;;;;;5013813;28;20206;-61
2022/03/11 03:01:25;;;;;;;23.50;15.00;;;;;;;;;;5014758;28;20206;-63
2022/03/11 03:03:53;;;;;;;24.43;15.23;;;;;;;;;;5013644;28;20735;-63
2022/03/11 03:06:20;;;;;;;23.27;15.77;;;;;;;;;;5029351;28;20201;-61
2022/03/11 03:08:48;;;;;;;23.87;15.23;;;;;;;;;;5027024;28;20248;-64
2022/03/11 03:11:15;;;;;;;27.47;16.67;;;;;;;;;;5030413;28;21042;-65
2022/03/11 03:13:42;;;;;;;24.67;16.70;;;;;;;;;;5036264;28;20209;-66
2022/03/11 03:16:10;;;;;;;23.90;15.30;;;;;;;;;;5031933;28;20209;-63
2022/03/11 03:18:37;;;;;;;28.10;16.13;;;;;;;;;;5030068;28;20228;-63
2022/03/11 03:21:05;;;;;;;23.67;15.63;;;;;;;;;;5015720;28;20209;-62
2022/03/11 03:23:32;;;;;;;25.13;15.73;;;;;;;;;;5012855;28;20780;-63
2022/03/11 03:26:01;;;;;;;27.17;16.43;;;;;;;;;;5042394;28;20209;-64
2022/03/11 03:28:28;;;;;;;24.90;16.10;;;;;;;;;;5034174;28;20243;-62
2022/03/11 03:30:56;;;;;;;26.40;16.53;;;;;;;;;;5038157;28;20326;-64
2022/03/11 03:33:23;;;;;;;28.63;17.03;;;;;;;;;;5013572;28;20210;-64
2022/03/11 03:35:51;;;;;;;26.17;16.77;;;;;;;;;;5011615;28;20277;-62
2022/03/11 03:38:18;;;;;;;26.37;16.20;;;;;;;;;;5008277;28;20281;-62
2022/03/11 03:40:45;;;;;;;22.73;16.40;;;;;;;;;;5015462;28;20228;-63
2022/03/11 03:43:13;;;;;;;25.60;16.03;;;;;;;;;;5021243;28;22294;-63
2022/03/11 03:45:40;;;;;;;25.50;15.67;;;;;;;;;;5016159;28;20217;-64
2022/03/11 03:48:08;;;;;;;24.40;16.10;;;;;;;;;;5010418;28;20904;-64
2022/03/11 03:50:35;;;;;;;30.03;17.27;;;;;;;;;;5025181;28;20206;-65
2022/03/11 03:53:03;;;;;;;26.30;15.97;;;;;;;;;;5010471;28;20949;-62
2022/03/11 03:55:30;;;;;;;25.83;16.13;;;;;;;;;;5016189;28;20213;-62
2022/03/11 03:57:57;;;;;;;26.97;16.93;;;;;;;;;;5013100;28;20694;-64
2022/03/11 04:00:25;;;;;;;28.57;17.03;;;;;;;;;;5015633;28;20772;-65
2022/03/11 04:02:53;;;;;;;25.73;16.20;;;;;;;;;;5008112;28;20216;-63
2022/03/11 04:05:20;;;;;;;25.00;16.20;;;;;;;;;;5012424;28;20216;-63
2022/03/11 04:07:48;;;;;;;27.57;16.33;;;;;;;;;;5027396;28;20233;-64
2022/03/11 04:10:16;;;;;;;25.33;16.27;;;;;;;;;;5006788;28;20223;-63
2022/03/11 04:12:44;;;;;;;24.57;15.13;;;;;;;;;;5031239;28;20262;-63
2022/03/11 04:15:11;;;;;;;25.07;16.17;;;;;;;;;;5015240;28;20213;-64
2022/03/11 04:17:39;;;;;;;23.97;15.13;;;;;;;;;;5005954;28;20282;-64
2022/03/11 04:20:07;;;;;;;29.20;17.63;;;;;;;;;;5008321;28;20261;-63
2022/03/11 04:22:40;;;;;;;96.73;50.63;;;;;;;;;;5016207;28;20583;-63
2022/03/11 04:25:09;;;;;;;71.77;41.40;;;;;;;;;;5003751;28;20753;-62
2022/03/11 04:27:36;;;;;;;50.20;31.10;;;;;;;;;;5022216;28;20847;-61
2022/03/11 04:30:04;;;;;;;36.93;22.67;;;;;;;;;;5025967;28;20204;-64
2022/03/11 04:32:32;;;;;;;31.67;18.83;;;;;;;;;;5011672;28;20219;-64
2022/03/11 04:34:59;;;;;;;29.00;18.37;;;;;;;;;;5018380;28;20705;-63
2022/03/11 04:37:26;;;;;;;28.83;17.77;;;;;;;;;;5001994;28;20241;-63
2022/03/11 04:39:54;;;;;;;30.83;18.17;;;;;;;;;;5015270;28;20204;-64
2022/03/11 04:42:21;;;;;;;24.40;16.20;;;;;;;;;;5023796;28;20689;-65
2022/03/11 04:44:49;;;;;;;24.87;16.00;;;;;;;;;;5014891;28;20215;-63
2022/03/11 04:47:16;;;;;;;26.70;16.07;;;;;;;;;;5019209;28;20234;-62
2022/03/11 04:49:43;;;;;;;24.23;15.40;;;;;;;;;;5046838;28;20470;-63
2022/03/11 04:52:11;;;;;;;23.67;16.03;;;;;;;;;;5024272;28;20215;-63
2022/03/11 04:54:38;;;;;;;26.07;16.87;;;;;;;;;;5028754;28;20202;-64
2022/03/11 04:57:05;;;;;;;23.23;15.53;;;;;;;;;;5035764;28;20231;-64
2022/03/11 04:59:33;;;;;;;24.63;15.63;;;;;;;;;;5014412;28;20297;-63
2022/03/11 05:02:00;;;;;;;27.23;15.53;;;;;;;;;;5002705;28;20223;-64
2022/03/11 05:04:28;;;;;;;20.93;14.43;;;;;;;;;;5011378;28;20236;-64
2022/03/11 05:06:55;;;;;;;25.43;15.57;;;;;;;;;;5015033;28;20226;-64
2022/03/11 05:09:22;;;;;;;24.13;14.20;;;;;;;;;;5013381;28;20300;-64
2022/03/11 05:11:50;;;;;;;25.57;15.93;;;;;;;;;;5002301;28;20218;-64
2022/03/11 05:14:17;;;;;;;26.50;15.03;;;;;;;;;;5007693;28;20236;-65
2022/03/11 05:16:45;;;;;;;23.47;14.17;;;;;;;;;;5010694;28;20679;-64
2022/03/11 05:19:13;;;;;;;22.13;13.83;;;;;;;;;;5013848;28;20215;-63
2022/03/11 05:21:40;;;;;;;24.63;15.10;;;;;;;;;;5027802;28;20207;-64
2022/03/11 05:24:08;;;;;;;23.27;14.57;;;;;;;;;;5019449;28;20711;-64
2022/03/11 05:26:35;;;;;;;23.83;14.30;;;;;;;;;;5002778;28;20215;-64
2022/03/11 05:29:03;;;;;;;24.77;14.63;;;;;;;;;;5006201;28;20448;-63
2022/03/11 05:31:30;;;;;;;22.30;13.43;;;;;;;;;;5019350;28;20217;-64
2022/03/11 05:33:58;;;;;;;22.73;13.63;;;;;;;;;;5026839;28;20221;-63
2022/03/11 05:36:25;;;;;;;24.13;13.53;;;;;;;;;;5006701;28;20911;-63
2022/03/11 05:38:54;;;;;;;21.07;13.43;;;;;;;;;;5005650;28;20230;-63
2022/03/11 05:41:21;;;;;;;22.27;14.07;;;;;;;;;;5005009;28;20613;-63
2022/03/11 05:43:49;;;;;;;22.70;13.47;;;;;;;;;;5022744;28;20306;-64
2022/03/11 05:46:17;;;;;;;20.87;12.90;;;;;;;;;;5004751;28;20717;-64
2022/03/11 05:48:44;;;;;;;26.37;13.67;;;;;;;;;;5025787;28;20233;-63
2022/03/11 05:51:11;;;;;;;21.73;14.00;;;;;;;;;;5020867;28;20248;-64
2022/03/11 05:53:39;;;;;;;22.23;13.27;;;;;;;;;;5021722;28;20206;-63
2022/03/11 05:56:06;;;;;;;21.53;13.03;;;;;;;;;;5006785;28;20210;-63
2022/03/11 05:58:33;;;;;;;21.13;12.70;;;;;;;;;;5022659;28;21999;-63
2022/03/11 06:01:01;;;;;;;19.67;13.03;;;;;;;;;;5021283;28;20211;-62
2022/03/11 06:03:29;;;;;;;18.27;12.10;;;;;;;;;;5022908;28;20210;-64
2022/03/11 06:05:57;;;;;;;21.90;11.87;;;;;;;;;;5006709;28;20284;-63
2022/03/11 06:08:24;;;;;;;18.63;11.27;;;;;;;;;;5016292;28;20753;-64
2022/03/11 06:10:52;;;;;;;16.83;10.70;;;;;;;;;;5013448;28;20202;-64
2022/03/11 06:13:19;;;;;;;22.13;11.20;;;;;;;;;;5021269;28;20209;-65
2022/03/11 06:15:46;;;;;;;23.80;11.57;;;;;;;;;;5008007;28;20214;-63
2022/03/11 06:18:17;;;;;;;21.43;11.53;;;;;;;;;;5027575;28;20253;-64
2022/03/11 06:20:45;;;;;;;18.80;11.10;;;;;;;;;;5019131;28;20583;-63
2022/03/11 06:23:14;;;;;;;19.57;11.70;;;;;;;;;;5018053;28;20214;-63
2022/03/11 06:25:44;;;;;;;21.93;12.27;;;;;;;;;;5017089;28;20202;-63
2022/03/11 06:28:13;;;;;;;19.73;12.53;;;;;;;;;;5015080;28;20243;-65
2022/03/11 06:30:40;;;;;;;22.03;12.77;;;;;;;;;;5020183;28;20656;-65
2022/03/11 06:33:09;;;;;;;19.77;12.43;;;;;;;;;;5027311;28;20237;-63
2022/03/11 06:35:37;;;;;;;17.03;10.83;;;;;;;;;;5023299;28;20623;-64
2022/03/11 06:38:05;;;;;;;19.43;10.90;;;;;;;;;;5020492;28;20231;-63
2022/03/11 06:40:33;;;;;;;22.23;13.30;;;;;;;;;;5035838;28;20206;-64
2022/03/11 06:43:00;;;;;;;19.23;11.80;;;;;;;;;;5038017;28;20676;-62
2022/03/11 06:45:27;;;;;;;23.43;12.60;;;;;;;;;;5011696;28;20669;-65
2022/03/11 06:47:55;;;;;;;18.87;10.87;;;;;;;;;;5032013;28;20757;-62
2022/03/11 06:50:22;;;;;;;15.90;10.17;;;;;;;;;;5019152;28;20211;-65
2022/03/11 06:52:50;;;;;;;16.93;9.97;;;;;;;;;;5041245;28;20304;-65
2022/03/11 06:55:17;;;;;;;15.50;10.10;;;;;;;;;;5017379;28;20696;-65
2022/03/11 06:57:45;;;;;;;15.93;10.40;;;;;;;;;;5015133;28;20226;-64
2022/03/11 07:00:13;;;;;;;17.53;10.70;;;;;;;;;;5016258;28;20217;-65
2022/03/11 07:02:40;;;;;;;20.70;11.03;;;;;;;;;;5015375;28;20218;-64
2022/03/11 07:05:09;;;;;;;17.07;11.27;;;;;;;;;;5011140;28;20287;-63
2022/03/11 07:07:36;;;;;;;19.40;11.27;;;;;;;;;;5030435;28;20231;-64
2022/03/11 07:10:05;;;;;;;19.60;11.17;;;;;;;;;;5026878;28;20213;-66
2022/03/11 07:12:33;;;;;;;17.47;10.87;;;;;;;;;;5016589;28;20206;-64
2022/03/11 07:15:01;;;;;;;13.67;10.13;;;;;;;;;;5035952;28;20206;-64
2022/03/11 07:17:28;;;;;;;16.57;10.23;;;;;;;;;;5023089;28;20225;-64
2022/03/11 07:19:56;;;;;;;16.00;10.30;;;;;;;;;;5029754;28;20216;-64
2022/03/11 07:22:24;;;;;;;15.37;9.67;;;;;;;;;;5037416;28;20233;-63
2022/03/11 07:24:58;;;;;;;18.70;9.80;;;;;;;;;;5038139;28;20372;-64
2022/03/11 07:27:26;;;;;;;16.57;10.23;;;;;;;;;;5027196;28;20223;-64
2022/03/11 07:29:56;;;;;;;13.33;9.73;;;;;;;;;;5016108;28;20236;-64
2022/03/11 07:32:24;;;;;;;15.10;9.43;;;;;;;;;;5023570;28;20306;-62
2022/03/11 07:34:53;;;;;;;21.07;11.23;;;;;;;;;;5041293;28;20249;-64
2022/03/11 07:37:21;;;;;;;28.50;14.97;;;;;;;;;;5034214;28;20221;-63
2022/03/11 07:39:49;;;;;;;18.93;10.03;;;;;;;;;;5036858;28;20212;-64
2022/03/11 07:42:16;;;;;;;25.53;13.47;;;;;;;;;;5017790;28;20204;-64
2022/03/11 07:44:44;;;;;;;19.20;11.83;;;;;;;;;;5023963;28;20201;-64
2022/03/11 07:47:12;;;;;;;15.53;10.07;;;;;;;;;;5022293;28;20240;-62
2022/03/11 07:49:39;;;;;;;13.33;8.97;;;;;;;;;;5033233;28;20242;-64
2022/03/11 07:52:14;;;;;;;13.53;8.93;;;;;;;;;;5037247;28;20211;-64
2022/03/11 07:54:42;;;;;;;15.10;9.03;;;;;;;;;;5037907;28;20209;-63
2022/03/11 07:57:10;;;;;;;13.47;9.23;;;;;;;;;;5040926;28;20441;-63
2022/03/11 07:59:40;;;;;;;13.13;8.67;;;;;;;;;;5037500;28;20268;-65
2022/03/11 08:02:08;;;;;;;15.40;9.40;;;;;;;;;;5046989;28;20213;-63
2022/03/11 08:04:35;;;;;;;13.10;8.37;;;;;;;;;;5035903;28;20296;-64
2022/03/11 08:07:06;;;;;;;15.23;9.00;;;;;;;;;;5001857;28;20233;-64
2022/03/11 08:09:34;;;;;;;15.23;9.87;;;;;;;;;;5040177;28;20571;-62
2022/03/11 08:12:02;;;;;;;12.13;8.97;;;;;;;;;;5021705;28;20205;-64
2022/03/11 08:14:30;;;;;;;15.07;9.30;;;;;;;;;;5030405;28;20213;-64
2022/03/11 08:16:58;;;;;;;18.80;9.00;;;;;;;;;;5033095;28;20218;-64
2022/03/11 08:19:26;;;;;;;17.47;10.00;;;;;;;;;;5033890;28;20563;-66
2022/03/11 08:21:53;;;;;;;15.37;10.73;;;;;;;;;;5036957;28;20216;-64
2022/03/11 08:24:21;;;;;;;13.17;8.70;;;;;;;;;;5022464;28;20199;-63
2022/03/11 08:26:49;;;;;;;13.17;8.90;;;;;;;;;;5047988;28;20211;-63
2022/03/11 08:29:17;;;;;;;13.27;8.70;;;;;;;;;;5029978;28;20244;-63
2022/03/11 08:31:46;;;;;;;13.57;8.73;;;;;;;;;;5021335;28;20207;-65
2022/03/11 08:34:14;;;;;;;11.73;8.53;;;;;;;;;;5019601;28;20626;-64
2022/03/11 08:36:42;;;;;;;14.10;8.77;;;;;;;;;;5041635;28;20217;-63
2022/03/11 08:39:10;;;;;;;13.13;8.27;;;;;;;;;;5024869;28;20714;-63
2022/03/11 08:41:37;;;;;;;11.40;8.33;;;;;;;;;;5014477;28;20210;-64
2022/03/11 08:44:06;;;;;;;13.23;8.17;;;;;;;;;;5031980;28;20207;-64
2022/03/11 08:46:35;;;;;;;16.23;8.93;;;;;;;;;;5050222;28;20214;-62
2022/03/11 08:49:03;;;;;;;13.77;8.77;;;;;;;;;;5038445;28;20229;-64
2022/03/11 08:51:31;;;;;;;11.23;7.90;;;;;;;;;;5020639;28;20206;-63
2022/03/11 08:53:59;;;;;;;14.03;8.63;;;;;;;;;;5029504;28;20215;-62
2022/03/11 08:56:26;;;;;;;13.50;8.13;;;;;;;;;;5027472;28;20204;-63
2022/03/11 08:58:53;;;;;;;12.83;8.13;;;;;;;;;;5039520;28;20226;-64
2022/03/11 09:01:21;;;;;;;14.87;8.70;;;;;;;;;;5036726;28;20215;-64
2022/03/11 09:03:49;;;;;;;12.50;8.23;;;;;;;;;;5047581;28;20212;-64
2022/03/11 09:06:17;;;;;;;11.63;7.80;;;;;;;;;;5022024;28;20207;-63
2022/03/11 09:08:44;;;;;;;13.63;8.87;;;;;;;;;;5022334;28;20233;-63
2022/03/11 09:11:12;;;;;;;13.17;8.67;;;;;;;;;;5038591;28;20203;-64
2022/03/11 09:13:43;;;;;;;21.47;10.90;;;;;;;;;;5047102;28;20208;-64
2022/03/11 09:16:11;;;;;;;15.57;8.73;;;;;;;;;;5027819;28;20803;-64
2022/03/11 09:18:41;;;;;;;14.63;9.53;;;;;;;;;;5047443;28;20273;-64
2022/03/11 09:21:09;;;;;;;15.77;8.43;;;;;;;;;;5048654;28;20216;-64
2022/03/11 09:23:37;;;;;;;14.33;9.70;;;;;;;;;;5044493;28;20227;-64
2022/03/11 09:26:04;;;;;;;16.57;8.57;;;;;;;;;;5021527;28;20216;-64
2022/03/11 09:28:32;;;;;;;14.90;8.37;;;;;;;;;;5019548;28;20237;-65
2022/03/11 09:31:03;;;;;;;14.67;9.10;;;;;;;;;;5041313;28;20192;-64
2022/03/11 09:33:31;;;;;;;14.03;8.20;;;;;;;;;;5038642;28;20209;-64
2022/03/11 09:35:58;;;;;;;16.47;8.83;;;;;;;;;;5035924;28;20217;-66
2022/03/11 09:38:26;;;;;;;13.87;9.00;;;;;;;;;;5045042;28;20232;-64
2022/03/11 09:40:54;;;;;;;14.27;8.80;;;;;;;;;;5048840;28;20216;-63
2022/03/11 09:43:22;;;;;;;12.87;7.80;;;;;;;;;;5047593;28;20210;-65
2022/03/11 09:45:49;;;;;;;16.70;8.50;;;;;;;;;;5035200;28;20665;-64
2022/03/11 09:48:17;;;;;;;11.83;8.00;;;;;;;;;;5029548;28;20260;-63
2022/03/11 09:50:45;;;;;;;14.67;8.97;;;;;;;;;;5012169;28;20277;-64
2022/03/11 09:53:12;;;;;;;13.33;8.30;;;;;;;;;;5032610;28;20272;-63
2022/03/11 09:55:40;;;;;;;13.50;8.27;;;;;;;;;;5027746;28;20214;-64
2022/03/11 09:58:08;;;;;;;12.77;8.77;;;;;;;;;;5034713;28;20222;-64
2022/03/11 10:00:35;;;;;;;11.37;8.10;;;;;;;;;;5032853;28;20257;-62
2022/03/11 10:03:03;;;;;;;11.30;8.13;;;;;;;;;;5040982;28;20250;-64
2022/03/11 10:05:49;;;;;;;14.23;8.60;;;;;;;;;;5035373;28;20261;-64
2022/03/11 10:08:17;;;;;;;15.63;9.33;;;;;;;;;;5038469;28;21215;-64
2022/03/11 10:10:46;;;;;;;13.70;8.37;;;;;;;;;;5031384;28;20607;-64
2022/03/11 10:13:15;;;;;;;10.80;7.97;;;;;;;;;;5020237;28;20205;-62
2022/03/11 10:15:42;;;;;;;11.20;8.37;;;;;;;;;;5031245;28;20210;-64
2022/03/11 10:18:15;;;;;;;10.97;8.30;;;;;;;;;;5002928;28;20869;-64
2022/03/11 10:20:42;;;;;;;15.07;9.07;;;;;;;;;;5040638;28;20608;-63
2022/03/11 10:23:11;;;;;;;12.60;8.80;;;;;;;;;;5023254;28;20222;-64
2022/03/11 10:25:39;;;;;;;11.30;7.90;;;;;;;;;;5017921;28;20213;-63
2022/03/11 10:28:12;;;;;;;10.50;8.30;;;;;;;;;;5027311;28;20230;-64
2022/03/11 10:30:41;;;;;;;11.97;7.50;;;;;;;;;;5018962;28;20236;-64
2022/03/11 10:33:10;;;;;;;11.00;7.83;;;;;;;;;;5025386;28;20220;-65
2022/03/11 10:35:39;;;;;;;14.70;8.30;;;;;;;;;;5020344;28;20210;-64
2022/03/11 10:38:14;;;;;;;12.53;8.53;;;;;;;;;;5036317;28;20738;-64
2022/03/11 10:40:55;;;;;;;11.57;8.10;;;;;;;;;;5032656;28;20588;-64
2022/03/11 10:43:25;;;;;;;11.70;8.53;;;;;;;;;;5022443;28;20781;-64
2022/03/11 10:45:56;;;;;;;11.90;8.13;;;;;;;;;;5020862;28;20234;-64
2022/03/11 10:48:42;;;;;;;12.83;9.07;;;;;;;;;;5047713;28;20631;-64
2022/03/11 10:51:14;;;;;;;12.93;8.87;;;;;;;;;;5031787;28;20585;-64
2022/03/11 10:53:42;;;;;;;12.27;8.47;;;;;;;;;;5021131;28;20202;-63
2022/03/11 10:56:09;;;;;;;13.23;9.47;;;;;;;;;;5021332;28;20225;-63
2022/03/11 10:58:38;;;;;;;10.73;8.13;;;;;;;;;;5037150;28;20719;-65
2022/03/11 11:01:05;;;;;;;12.97;8.27;;;;;;;;;;5027516;28;20202;-64
2022/03/11 11:03:35;;;;;;;12.67;8.37;;;;;;;;;;5030636;28;20218;-66
2022/03/11 11:06:02;;;;;;;15.50;8.37;;;;;;;;;;5017638;28;20219;-66
2022/03/11 11:08:29;;;;;;;12.77;8.43;;;;;;;;;;5014647;28;20245;-65
2022/03/11 11:10:57;;;;;;;18.27;8.43;;;;;;;;;;5020188;28;20203;-65
2022/03/11 11:13:25;;;;;;;14.67;9.00;;;;;;;;;;5030573;28;20985;-64
2022/03/11 11:15:52;;;;;;;16.03;8.77;;;;;;;;;;5016132;28;20211;-66
2022/03/11 11:18:22;;;;;;;11.73;8.60;;;;;;;;;;5039498;28;20250;-63
2022/03/11 11:20:53;;;;;;;12.73;8.63;;;;;;;;;;5012317;28;20204;-65
2022/03/11 11:23:24;;;;;;;15.27;9.03;;;;;;;;;;5029150;28;20202;-65
2022/03/11 11:25:52;;;;;;;11.07;8.80;;;;;;;;;;5035927;28;20948;-66
2022/03/11 11:28:21;;;;;;;14.13;9.17;;;;;;;;;;5031626;28;20222;-63
2022/03/11 11:30:52;;;;;;;15.57;9.30;;;;;;;;;;5027627;28;20238;-64
2022/03/11 11:33:20;;;;;;;12.17;8.47;;;;;;;;;;5026790;28;20267;-64
2022/03/11 11:35:47;;;;;;;15.70;9.03;;;;;;;;;;5014302;28;20198;-65
2022/03/11 11:38:34;;;;;;;12.63;8.57;;;;;;;;;;5023561;28;20231;-64
2022/03/11 11:41:03;;;;;;;15.20;8.60;;;;;;;;;;5027493;28;21070;-65
2022/03/11 11:43:31;;;;;;;13.53;8.63;;;;;;;;;;5011704;28;20198;-66
2022/03/11 11:46:12;;;;;;;14.80;8.77;;;;;;;;;;5007319;28;20291;-65
2022/03/11 11:48:49;;;;;;;13.83;9.50;;;;;;;;;;5009437;28;20254;-64
2022/03/11 11:51:19;;;;;;;11.97;8.77;;;;;;;;;;5002041;28;20245;-65
2022/03/11 11:53:47;;;;;;;14.63;9.37;;;;;;;;;;5023485;28;20202;-64
2022/03/11 11:56:28;;;;;;;11.43;8.50;;;;;;;;;;5036509;28;20201;-64
2022/03/11 11:58:56;;;;;;;12.87;9.07;;;;;;;;;;5044543;28;20226;-65
2022/03/11 12:01:42;;;;;;;11.97;8.87;;;;;;;;;;5005310;28;20210;-65
2022/03/11 12:04:30;;;;;;;13.33;9.07;;;;;;;;;;5007184;28;20221;-65
2022/03/11 12:07:14;;;;;;;14.20;9.57;;;;;;;;;;5026870;28;22952;-65
2022/03/11 12:09:42;;;;;;;14.03;9.33;;;;;;;;;;5034641;28;20275;-66
2022/03/11 12:12:30;;;;;;;12.23;9.13;;;;;;;;;;5033247;28;20205;-64
2022/03/11 12:14:59;;;;;;;13.60;8.90;;;;;;;;;;5011728;28;20591;-64
2022/03/11 12:17:39;;;;;;;13.40;9.63;;;;;;;;;;5020437;28;20451;-64
2022/03/11 12:20:26;;;;;;;14.33;9.47;;;;;;;;;;5022150;28;20202;-65
2022/03/11 12:23:00;;;;;;;12.67;9.53;;;;;;;;;;5026554;28;20233;-65
2022/03/11 12:25:29;;;;;;;16.13;9.70;;;;;;;;;;5043618;28;20209;-64
2022/03/11 12:27:59;;;;;;;14.63;9.93;;;;;;;;;;5044150;28;20226;-65
2022/03/11 12:30:31;;;;;;;13.47;9.37;;;;;;;;;;5027540;28;20271;-64
2022/03/11 12:33:03;;;;;;;15.47;10.00;;;;;;;;;;5028242;28;20257;-64
2022/03/11 12:35:30;;;;;;;14.83;10.10;;;;;;;;;;5028210;28;20194;-65
2022/03/11 12:37:58;;;;;;;15.83;10.80;;;;;;;;;;5022742;28;20595;-65
2022/03/11 12:40:26;;;;;;;15.90;10.70;;;;;;;;;;5025658;28;20218;-65
2022/03/11 12:42:58;;;;;;;13.63;10.17;;;;;;;;;;5017326;28;20214;-63
2022/03/11 12:45:35;;;;;;;14.60;10.20;;;;;;;;;;5033347;28;20629;-64
2022/03/11 12:48:03;;;;;;;17.07;11.60;;;;;;;;;;5021570;28;20697;-64
2022/03/11 12:50:31;;;;;;;17.33;10.23;;;;;;;;;;5026684;28;20230;-65
2022/03/11 12:52:59;;;;;;;14.80;10.10;;;;;;;;;;5048008;28;20280;-65
2022/03/11 12:55:31;;;;;;;13.67;10.33;;;;;;;;;;5023917;28;20203;-65
2022/03/11 12:57:59;;;;;;;12.40;9.57;;;;;;;;;;5032419;28;20681;-64
2022/03/11 13:00:33;;;;;;;14.37;9.97;;;;;;;;;;5029763;28;20214;-65
2022/03/11 13:03:02;;;;;;;14.93;9.23;;;;;;;;;;5013973;28;20211;-63
2022/03/11 13:05:34;;;;;;;14.40;10.33;;;;;;;;;;5014276;28;20602;-64
2022/03/11 13:08:06;;;;;;;15.13;10.50;;;;;;;;;;5023472;28;20226;-65
2022/03/11 13:10:34;;;;;;;15.40;10.10;;;;;;;;;;5035907;28;20764;-65
2022/03/11 13:13:05;;;;;;;15.10;10.13;;;;;;;;;;5025075;28;20238;-64
2022/03/11 13:15:36;;;;;;;14.63;9.80;;;;;;;;;;5022298;28;20249;-65
2022/03/11 13:18:04;;;;;;;12.80;9.20;;;;;;;;;;5049910;28;20751;-65
2022/03/11 13:20:31;;;;;;;17.57;9.87;;;;;;;;;;5038318;28;20328;-65
2022/03/11 13:23:08;;;;;;;13.40;9.63;;;;;;;;;;5036145;28;20691;-65
2022/03/11 13:25:36;;;;;;;17.47;10.23;;;;;;;;;;5035394;28;20198;-64
2022/03/11 13:28:03;;;;;;;15.13;10.30;;;;;;;;;;5018553;28;20227;-65
2022/03/11 13:30:39;;;;;;;17.87;9.27;;;;;;;;;;5032358;28;20281;-66
2022/03/11 13:33:11;;;;;;;17.03;11.20;;;;;;;;;;5040143;28;20206;-65
2022/03/11 13:35:38;;;;;;;12.80;10.00;;;;;;;;;;5043194;28;20426;-65
2022/03/11 13:38:06;;;;;;;14.53;10.83;;;;;;;;;;5020110;28;20215;-65
2022/03/11 13:40:49;;;;;;;14.50;10.43;;;;;;;;;;5030065;28;20214;-63
2022/03/11 13:43:22;;;;;;;18.83;10.73;;;;;;;;;;5020452;28;20209;-65
2022/03/11 13:45:53;;;;;;;13.83;10.40;;;;;;;;;;5037132;28;20613;-65
2022/03/11 13:48:26;;;;;;;13.43;10.30;;;;;;;;;;5031075;28;20221;-64
2022/03/11 13:51:10;;;;;;;13.63;9.63;;;;;;;;;;5013369;28;20273;-66
2022/03/11 13:53:38;;;;;;;14.50;9.87;;;;;;;;;;5032702;28;20202;-63
2022/03/11 13:56:16;;;;;;;17.17;10.47;;;;;;;;;;5034183;28;20198;-65
2022/03/11 13:58:44;;;;;;;14.87;9.90;;;;;;;;;;5035083;28;20231;-66
2022/03/11 14:01:13;;;;;;;13.70;9.77;;;;;;;;;;5025442;28;20213;-65
2022/03/11 14:03:45;;;;;;;12.80;10.17;;;;;;;;;;5012152;28;20731;-65
2022/03/11 14:06:12;;;;;;;12.70;9.47;;;;;;;;;;5023516;28;20212;-63
2022/03/11 14:08:58;;;;;;;16.07;10.10;;;;;;;;;;5029315;28;20276;-65
2022/03/11 14:11:25;;;;;;;14.20;9.47;;;;;;;;;;5016537;28;20226;-64
2022/03/11 14:13:53;;;;;;;18.50;9.87;;;;;;;;;;5021398;28;20209;-65
2022/03/11 14:16:27;;;;;;;13.87;10.03;;;;;;;;;;5019488;28;20199;-66
2022/03/11 14:18:55;;;;;;;13.80;9.60;;;;;;;;;;5025601;28;20235;-65
2022/03/11 14:21:22;;;;;;;13.93;10.00;;;;;;;;;;5022881;28;20199;-66
2022/03/11 14:23:50;;;;;;;14.00;10.03;;;;;;;;;;5040279;28;20272;-67
2022/03/11 14:26:19;;;;;;;14.03;9.50;;;;;;;;;;5022077;28;20205;-64
2022/03/11 14:28:46;;;;;;;13.37;9.30;;;;;;;;;;5021009;28;20222;-65
2022/03/11 14:31:14;;;;;;;13.57;10.03;;;;;;;;;;5031854;28;20240;-66
2022/03/11 14:33:41;;;;;;;13.20;9.93;;;;;;;;;;5020983;28;20218;-66